Time;durP1;ratioP1;P1;durP2;ratioP2;P2;SDS_P1;SDS_P2;PMS_P1;PMS_P2;Temp;Humidity;BMP_temperature;BMP_pressure;BME280_temperature;BME280_humidity;BME280_pressure;Samples;Min_cycle;Max_cycle;Signal;HPM_P1;HPM_P2
2021/09/17 00:01:25;;;;;;;14.88;9.55;;;;;;;15.14;90.55;96792.19;5000681;28;20631;-66
2021/09/17 00:03:51;;;;;;;20.42;11.30;;;;;;;14.90;92.11;96784.31;5031303;28;20046;-67
2021/09/17 00:06:16;;;;;;;17.85;11.40;;;;;;;14.77;91.09;96790.59;5036017;28;20041;-65
2021/09/17 00:08:41;;;;;;;15.70;10.20;;;;;;;14.89;91.04;96790.19;5031260;28;20053;-64
2021/09/17 00:11:07;;;;;;;15.55;9.63;;;;;;;15.02;91.11;96793.38;5022500;28;20040;-64
2021/09/17 00:13:36;;;;;;;14.52;9.32;;;;;;;15.02;90.89;96788.66;5029933;28;20056;-66
2021/09/17 00:16:01;;;;;;;18.20;9.30;;;;;;;15.00;91.67;96784.69;5025819;28;20049;-65
2021/09/17 00:18:27;;;;;;;16.15;8.93;;;;;;;15.11;91.58;96791.03;5029388;28;20049;-65
2021/09/17 00:20:52;;;;;;;13.55;9.13;;;;;;;15.20;91.87;96785.88;5029259;28;20413;-64
2021/09/17 00:23:18;;;;;;;13.95;8.88;;;;;;;15.16;92.60;96787.06;5013832;28;20044;-64
2021/09/17 00:25:43;;;;;;;15.02;8.88;;;;;;;15.20;92.83;96785.88;5025662;28;20045;-67
2021/09/17 00:28:08;;;;;;;13.02;8.90;;;;;;;15.23;93.27;96785.09;5035138;28;20075;-65
2021/09/17 00:30:34;;;;;;;16.30;8.10;;;;;;;15.20;93.06;96774.06;5041034;28;20041;-65
2021/09/17 00:33:00;;;;;;;14.65;9.43;;;;;;;15.10;94.51;96772.88;5020888;28;20045;-65
2021/09/17 00:35:25;;;;;;;17.58;10.52;;;;;;;14.88;95.96;96772.09;5012306;28;20053;-64
2021/09/17 00:37:51;;;;;;;19.15;8.23;;;;;;;15.04;95.68;96766.97;5026213;28;20648;-65
2021/09/17 00:40:17;;;;;;;14.88;8.60;;;;;;;15.23;93.21;96763.03;5023309;28;20052;-65
2021/09/17 00:42:43;;;;;;;12.48;8.35;;;;;;;15.33;91.55;96768.94;5032108;28;20050;-65
2021/09/17 00:45:11;;;;;;;16.33;9.20;;;;;;;15.51;89.53;96768.91;5021784;28;20132;-66
2021/09/17 00:47:37;;;;;;;17.23;8.07;;;;;;;15.52;90.50;96770.47;5028410;28;20440;-66
2021/09/17 00:50:04;;;;;;;17.05;7.30;;;;;;;15.58;91.74;96768.88;5029232;28;20044;-67
2021/09/17 00:52:30;;;;;;;11.50;7.57;;;;;;;15.48;92.45;96762.19;5039890;28;20033;-66
2021/09/17 00:54:56;;;;;;;12.30;6.80;;;;;;;15.41;93.17;96770.47;5041099;28;20049;-64
2021/09/17 00:57:21;;;;;;;13.95;7.80;;;;;;;15.46;93.46;96770.88;5030213;28;20041;-66
2021/09/17 00:59:47;;;;;;;13.52;7.57;;;;;;;15.44;93.57;96767.72;5035768;28;20133;-66
2021/09/17 01:02:13;;;;;;;21.30;8.80;;;;;;;15.34;93.88;96763.03;5025698;28;20038;-66
2021/09/17 01:04:38;;;;;;;16.23;8.23;;;;;;;15.41;92.97;96762.19;5022978;28;20080;-65
2021/09/17 01:07:04;;;;;;;16.20;9.43;;;;;;;15.36;93.55;96765.38;5017384;28;20073;-68
2021/09/17 01:09:30;;;;;;;14.63;8.90;;;;;;;15.44;93.67;96753.91;5021796;28;20159;-67
2021/09/17 01:12:02;;;;;;;18.27;8.57;;;;;;;15.53;93.02;96753.50;5030648;28;20067;-66
2021/09/17 01:14:29;;;;;;;15.00;9.23;;;;;;;15.60;91.68;96750.72;5026344;28;20087;-66
2021/09/17 01:16:54;;;;;;;17.60;9.00;;;;;;;15.64;90.79;96756.25;5019176;28;20053;-65
2021/09/17 01:19:20;;;;;;;15.10;9.23;;;;;;;15.66;90.70;96745.59;4994576;28;20095;-66
2021/09/17 01:21:45;;;;;;;18.55;9.70;;;;;;;15.58;91.32;96744.81;5029576;28;20046;-65
2021/09/17 01:24:10;;;;;;;13.95;9.07;;;;;;;15.51;91.45;96746.81;5030396;28;20084;-67
2021/09/17 01:26:37;;;;;;;15.40;9.18;;;;;;;15.53;92.24;96752.72;5002959;28;20042;-64
2021/09/17 01:29:03;;;;;;;13.82;8.82;;;;;;;15.53;91.31;96750.75;5015124;28;20119;-68
2021/09/17 01:31:28;;;;;;;20.45;9.40;;;;;;;15.45;91.27;96744.47;5018437;28;20038;-65
2021/09/17 01:33:54;;;;;;;14.27;8.68;;;;;;;15.41;91.18;96748.41;5020690;28;20069;-67
2021/09/17 01:36:19;;;;;;;17.45;8.40;;;;;;;15.41;91.13;96740.13;5027134;28;20112;-65
2021/09/17 01:38:44;;;;;;;16.90;9.13;;;;;;;15.49;89.55;96744.47;5030355;28;20149;-66
2021/09/17 01:41:10;;;;;;;17.95;9.05;;;;;;;15.47;90.19;96741.31;5025481;28;20083;-64
2021/09/17 01:43:35;;;;;;;15.73;8.75;;;;;;;15.32;91.52;96737.00;5031950;28;20072;-65
2021/09/17 01:46:01;;;;;;;17.20;9.02;;;;;;;14.97;93.59;96738.63;5009767;28;20136;-65
2021/09/17 01:48:29;;;;;;;13.77;8.85;;;;;;;14.60;96.84;96737.78;5030807;28;20052;-65
2021/09/17 01:50:55;;;;;;;17.33;8.68;;;;;;;14.64;97.22;96738.59;5041040;28;20037;-65
2021/09/17 01:53:20;;;;;;;14.95;9.43;;;;;;;14.50;96.32;96739.34;5019408;28;20124;-66
2021/09/17 01:55:46;;;;;;;19.98;9.70;;;;;;;14.40;97.68;96731.84;5023704;28;20049;-66
2021/09/17 01:58:11;;;;;;;16.27;9.65;;;;;;;14.29;98.46;96729.06;5017163;28;20057;-65
2021/09/17 02:00:37;;;;;;;14.93;9.63;;;;;;;14.21;98.39;96721.97;5029102;28;20048;-65
2021/09/17 02:03:02;;;;;;;13.13;8.70;;;;;;;14.26;98.45;96731.81;5027869;28;20060;-66
2021/09/17 02:05:29;;;;;;;14.43;8.48;;;;;;;14.42;97.44;96724.00;5031967;28;20041;-64
2021/09/17 02:07:55;;;;;;;15.45;8.57;;;;;;;14.49;96.13;96725.94;5029549;28;20056;-65
2021/09/17 02:10:20;;;;;;;12.88;8.77;;;;;;;14.30;97.03;96721.59;5020104;28;20082;-64
2021/09/17 02:12:46;;;;;;;16.48;8.85;;;;;;;14.01;99.54;96713.25;5029102;28;20117;-64
2021/09/17 02:15:12;;;;;;;12.25;7.20;;;;;;;13.88;97.13;96706.50;5032280;28;20088;-66
2021/09/17 02:17:37;;;;;;;13.20;8.13;;;;;;;13.88;97.24;96712.03;5031298;28;20497;-65
2021/09/17 02:20:05;;;;;;;13.63;7.35;;;;;;;13.97;96.95;96715.19;5043255;28;20113;-66
2021/09/17 02:22:31;;;;;;;13.02;7.25;;;;;;;14.19;96.55;96718.00;5034552;28;20053;-64
2021/09/17 02:24:58;;;;;;;12.65;6.38;;;;;;;14.34;95.00;96717.66;5034943;28;20033;-64
2021/09/17 02:27:24;;;;;;;11.02;7.15;;;;;;;14.51;93.36;96718.88;5029885;28;20041;-64
2021/09/17 02:29:49;;;;;;;11.43;7.07;;;;;;;14.66;92.94;96718.91;5032715;28;20056;-66
2021/09/17 02:32:15;;;;;;;13.98;7.22;;;;;;;14.60;93.07;96717.72;5033596;28;20044;-66
2021/09/17 02:34:42;;;;;;;13.07;7.40;;;;;;;14.46;92.72;96711.00;5047247;28;20053;-65
2021/09/17 02:37:07;;;;;;;9.85;6.38;;;;;;;14.34;92.50;96709.38;5045564;28;20131;-67
2021/09/17 02:39:33;;;;;;;11.43;7.05;;;;;;;14.37;93.34;96705.09;5033907;28;20064;-66
2021/09/17 02:41:58;;;;;;;8.63;5.68;;;;;;;14.46;93.27;96711.00;5016021;28;20132;-66
2021/09/17 02:44:23;;;;;;;11.50;6.88;;;;;;;14.41;92.21;96705.09;5026495;28;20103;-64
2021/09/17 02:46:49;;;;;;;11.77;7.10;;;;;;;14.22;93.17;96706.22;5031126;28;20045;-65
2021/09/17 02:49:15;;;;;;;11.85;6.40;;;;;;;14.06;93.69;96696.38;5018877;28;20610;-65
2021/09/17 02:51:40;;;;;;;12.30;6.32;;;;;;;14.04;93.78;96695.94;5031699;28;20390;-64
2021/09/17 02:54:05;;;;;;;7.47;5.75;;;;;;;14.14;94.45;96703.44;5018329;28;20077;-64
2021/09/17 02:56:31;;;;;;;11.57;5.85;;;;;;;14.26;94.09;96704.25;5024174;28;20048;-65
2021/09/17 02:58:56;;;;;;;7.97;5.10;;;;;;;14.43;93.18;96699.97;5024329;28;20379;-64
2021/09/17 03:01:22;;;;;;;9.20;6.00;;;;;;;14.52;93.13;96708.63;5010164;28;20049;-65
2021/09/17 03:03:47;;;;;;;9.98;6.63;;;;;;;14.61;93.52;96708.28;5051970;28;20049;-66
2021/09/17 03:06:13;;;;;;;10.63;6.53;;;;;;;14.62;93.61;96704.31;5033166;28;20041;-66
2021/09/17 03:08:38;;;;;;;11.00;6.85;;;;;;;14.71;92.79;96693.69;5029833;28;20046;-65
2021/09/17 03:11:03;;;;;;;11.02;6.45;;;;;;;14.79;92.52;96695.28;5028417;28;20410;-67
2021/09/17 03:13:29;;;;;;;8.05;6.10;;;;;;;14.78;92.64;96703.94;5021343;28;20057;-64
2021/09/17 03:15:55;;;;;;;10.75;6.15;;;;;;;14.77;92.71;96707.91;5033597;28;20117;-65
2021/09/17 03:18:21;;;;;;;16.33;7.65;;;;;;;14.86;91.92;96711.03;5017667;28;20106;-65
2021/09/17 03:20:49;;;;;;;11.77;6.78;;;;;;;14.82;91.78;96702.78;5022795;28;20052;-68
2021/09/17 03:23:14;;;;;;;12.48;6.75;;;;;;;14.82;91.74;96707.47;5028543;28;20048;-68
2021/09/17 03:25:40;;;;;;;8.55;6.32;;;;;;;14.84;91.55;96702.38;5020556;28;20053;-66
2021/09/17 03:28:06;;;;;;;9.50;6.47;;;;;;;14.80;91.85;96696.88;5040620;28;20508;-66
2021/09/17 03:30:32;;;;;;;14.27;7.53;;;;;;;14.81;92.36;96701.19;5025156;28;20037;-66
2021/09/17 03:32:58;;;;;;;13.85;8.18;;;;;;;14.82;91.73;96699.22;5037521;28;20037;-66
2021/09/17 03:35:24;;;;;;;9.15;6.32;;;;;;;14.86;91.80;96694.50;5024733;28;20056;-65
2021/09/17 03:37:49;;;;;;;14.60;7.25;;;;;;;14.75;91.94;96690.94;5030017;28;20093;-65
2021/09/17 03:40:15;;;;;;;12.75;7.82;;;;;;;14.36;94.70;96694.44;5029034;28;20049;-67
2021/09/17 03:42:40;;;;;;;12.43;7.70;;;;;;;14.27;94.50;96700.34;5024414;28;20132;-66
2021/09/17 03:45:07;;;;;;;12.45;7.20;;;;;;;14.07;94.99;96703.44;5026999;28;20064;-66
2021/09/17 03:47:33;;;;;;;15.40;8.25;;;;;;;13.90;95.65;96698.66;5033156;28;20033;-67
2021/09/17 03:49:58;;;;;;;13.70;7.93;;;;;;;13.79;95.74;96700.59;5033972;28;20504;-67
2021/09/17 03:52:24;;;;;;;17.33;8.30;;;;;;;13.68;94.96;96700.53;5027837;28;21062;-67
2021/09/17 03:54:49;;;;;;;14.02;8.55;;;;;;;13.68;95.18;96697.78;5026608;28;20041;-67
2021/09/17 03:57:15;;;;;;;14.02;8.40;;;;;;;13.63;94.32;96698.97;5028808;28;20038;-66
2021/09/17 03:59:40;;;;;;;16.10;8.35;;;;;;;13.55;95.10;96703.63;5022290;28;20084;-66
2021/09/17 04:02:06;;;;;;;15.07;9.02;;;;;;;13.52;95.07;96698.91;5015470;28;20490;-68
2021/09/17 04:04:31;;;;;;;15.30;7.88;;;;;;;13.65;94.94;96695.81;5028071;28;20080;-66
2021/09/17 04:06:58;;;;;;;17.70;8.60;;;;;;;13.66;94.38;96697.41;5027547;28;20048;-66
2021/09/17 04:09:23;;;;;;;14.85;8.52;;;;;;;13.62;94.39;96702.88;5012841;28;20325;-67
2021/09/17 04:11:49;;;;;;;17.17;9.20;;;;;;;13.48;95.33;96698.09;5024056;28;20045;-66
2021/09/17 04:14:14;;;;;;;12.73;8.20;;;;;;;13.44;96.38;96689.03;5024139;28;20048;-66
2021/09/17 04:16:39;;;;;;;18.13;8.45;;;;;;;13.54;95.51;96688.31;5011888;28;20049;-67
2021/09/17 04:19:05;;;;;;;15.20;8.55;;;;;;;13.60;95.40;96690.69;5016421;28;20571;-67
2021/09/17 04:21:30;;;;;;;17.63;9.75;;;;;;;13.67;95.13;96691.50;5023825;28;20520;-66
2021/09/17 04:23:56;;;;;;;14.98;7.90;;;;;;;13.68;95.65;96690.31;5019606;28;20045;-64
2021/09/17 04:26:22;;;;;;;15.18;8.65;;;;;;;13.73;95.64;96700.97;5025245;28;20542;-68
2021/09/17 04:28:49;;;;;;;18.15;9.82;;;;;;;13.91;94.93;96700.25;5021563;28;20371;-67
2021/09/17 04:31:14;;;;;;;19.23;10.07;;;;;;;13.74;95.09;96691.53;5016060;28;20046;-67
2021/09/17 04:33:39;;;;;;;14.48;8.23;;;;;;;13.53;95.03;96694.19;5020061;28;20044;-67
2021/09/17 04:36:05;;;;;;;18.88;9.60;;;;;;;13.52;95.69;96692.59;5029566;28;20124;-67
2021/09/17 04:38:30;;;;;;;17.80;9.27;;;;;;;13.57;95.90;96695.78;5042500;28;20045;-66
2021/09/17 04:40:55;;;;;;;15.05;9.38;;;;;;;13.65;95.76;96695.81;5040324;28;20044;-68
2021/09/17 04:43:21;;;;;;;17.08;10.40;;;;;;;13.69;95.93;96693.88;5018940;28;20095;-65
2021/09/17 04:45:46;;;;;;;14.15;9.23;;;;;;;13.64;95.75;96699.75;5031105;28;20084;-66
2021/09/17 04:48:14;;;;;;;16.70;8.68;;;;;;;13.63;95.47;96696.22;5017837;28;20124;-67
2021/09/17 04:50:40;;;;;;;19.77;9.65;;;;;;;13.78;96.66;96694.31;5024570;28;20038;-66
2021/09/17 04:53:06;;;;;;;16.63;7.95;;;;;;;14.03;94.92;96696.34;5024474;28;20036;-66
2021/09/17 04:55:31;;;;;;;12.43;8.05;;;;;;;13.83;93.63;96696.69;5029706;28;20052;-67
2021/09/17 04:58:00;;;;;;;13.88;8.07;;;;;;;13.81;93.98;96695.47;5026672;28;20071;-66
2021/09/17 05:00:26;;;;;;;14.82;7.93;;;;;;;13.85;94.32;96702.59;5028674;28;20045;-66
2021/09/17 05:02:51;;;;;;;13.73;7.47;;;;;;;14.04;93.40;96700.66;5028800;28;20064;-66
2021/09/17 05:05:16;;;;;;;11.00;6.57;;;;;;;14.01;92.28;96696.75;5024256;28;20037;-66
2021/09/17 05:07:42;;;;;;;10.13;6.00;;;;;;;13.86;92.42;96695.09;5038195;28;20045;-65
2021/09/17 05:10:09;;;;;;;12.27;6.85;;;;;;;13.85;92.93;96693.53;5020774;28;20048;-67
2021/09/17 05:12:34;;;;;;;7.85;5.18;;;;;;;14.10;91.43;96697.16;5024098;28;20049;-66
2021/09/17 05:15:00;;;;;;;8.25;5.18;;;;;;;14.22;91.07;96693.22;5023921;28;20036;-67
2021/09/17 05:17:26;;;;;;;8.55;5.35;;;;;;;14.27;90.78;96703.09;5018559;28;20072;-65
2021/09/17 05:19:51;;;;;;;8.98;4.72;;;;;;;14.30;91.27;96708.59;5030448;28;20063;-65
2021/09/17 05:22:17;;;;;;;7.75;5.20;;;;;;;14.12;91.19;96700.31;5005436;28;20041;-65
2021/09/17 05:24:42;;;;;;;8.68;4.85;;;;;;;14.10;90.83;96710.16;5021222;28;20045;-65
2021/09/17 05:27:14;;;;;;;10.73;5.18;;;;;;;13.98;91.70;96703.00;5026983;28;20057;-66
2021/09/17 05:29:40;;;;;;;7.45;4.82;;;;;;;13.83;93.23;96693.13;5032153;28;20048;-66
2021/09/17 05:32:06;;;;;;;9.02;4.93;;;;;;;13.69;93.41;96689.16;5023927;28;20443;-66
2021/09/17 05:34:31;;;;;;;7.50;4.63;;;;;;;13.70;94.50;96699.00;5028766;28;20074;-66
2021/09/17 05:36:56;;;;;;;9.27;4.53;;;;;;;13.95;94.02;96692.78;5013744;28;20132;-67
2021/09/17 05:39:22;;;;;;;6.60;3.85;;;;;;;14.06;91.86;96698.31;5035640;28;20045;-67
2021/09/17 05:41:47;;;;;;;6.10;3.97;;;;;;;14.06;90.38;96701.88;5043085;28;20044;-67
2021/09/17 05:44:12;;;;;;;5.28;3.40;;;;;;;14.16;90.89;96700.31;5036445;28;20051;-67
2021/09/17 05:46:38;;;;;;;9.93;4.22;;;;;;;14.24;90.23;96701.09;5033210;28;20103;-66
2021/09/17 05:49:03;;;;;;;6.00;3.17;;;;;;;14.35;89.49;96710.19;5028183;28;20139;-66
2021/09/17 05:51:28;;;;;;;9.18;3.78;;;;;;;14.07;87.68;96702.66;5031866;28;20052;-66
2021/09/17 05:53:54;;;;;;;6.15;3.35;;;;;;;13.95;88.69;96706.53;5033602;28;20406;-67
2021/09/17 05:56:19;;;;;;;6.38;2.60;;;;;;;14.13;88.50;96710.16;5028783;28;20379;-67
2021/09/17 05:58:45;;;;;;;4.63;3.00;;;;;;;14.22;87.60;96707.00;5044626;28;20071;-68
2021/09/17 06:01:10;;;;;;;3.97;2.78;;;;;;;14.23;86.80;96707.81;5038642;28;20048;-67
2021/09/17 06:03:36;;;;;;;4.05;2.85;;;;;;;14.19;86.38;96699.53;5025791;28;21342;-67
2021/09/17 06:06:01;;;;;;;5.43;3.00;;;;;;;14.60;84.92;96706.69;5026264;28;20033;-66
2021/09/17 06:08:27;;;;;;;5.22;3.00;;;;;;;14.58;84.23;96709.06;5025298;28;20058;-67
2021/09/17 06:10:52;;;;;;;6.63;3.13;;;;;;;14.47;83.45;96703.50;5026924;28;20045;-66
2021/09/17 06:13:18;;;;;;;6.45;3.42;;;;;;;14.69;83.42;96709.84;5033617;28;20128;-65
2021/09/17 06:15:43;;;;;;;4.38;2.50;;;;;;;14.86;81.46;96700.00;5035035;28;20049;-65
2021/09/17 06:18:08;;;;;;;3.70;2.25;;;;;;;14.83;82.69;96698.81;5021223;28;20065;-64
2021/09/17 06:20:34;;;;;;;4.43;2.47;;;;;;;14.95;82.63;96700.41;5019706;28;20052;-64
2021/09/17 06:22:59;;;;;;;5.30;2.15;;;;;;;15.17;79.83;96698.38;5023942;28;20083;-65
2021/09/17 06:25:25;;;;;;;2.88;1.98;;;;;;;15.31;78.63;96703.09;5025080;28;20061;-64
2021/09/17 06:27:51;;;;;;;4.13;2.13;;;;;;;15.04;77.70;96702.75;5032734;28;20073;-65
2021/09/17 06:30:18;;;;;;;2.53;1.67;;;;;;;14.66;79.22;96702.38;5039338;28;20060;-65
2021/09/17 06:32:44;;;;;;;2.90;1.90;;;;;;;14.53;81.79;96705.50;5036686;28;20131;-67
2021/09/17 06:35:10;;;;;;;6.80;2.10;;;;;;;14.53;82.72;96702.72;5037138;28;20041;-67
2021/09/17 06:37:47;;;;;;;4.32;2.17;;;;;;;14.57;82.22;96702.75;5025475;28;20115;-65
2021/09/17 06:40:13;;;;;;;3.00;1.77;;;;;;;14.49;80.66;96709.41;5011370;28;20049;-66
2021/09/17 06:42:38;;;;;;;2.83;1.88;;;;;;;14.57;81.91;96708.25;5023258;28;20426;-65
2021/09/17 06:45:05;;;;;;;2.67;1.80;;;;;;;14.71;81.62;96702.78;5001147;28;20048;-65
2021/09/17 06:47:31;;;;;;;2.78;1.50;;;;;;;14.93;81.50;96699.19;5003374;28;20049;-65
2021/09/17 06:49:59;;;;;;;2.90;1.35;;;;;;;15.02;80.19;96696.84;5014838;28;20045;-66
2021/09/17 06:52:25;;;;;;;2.40;1.55;;;;;;;14.96;79.23;96695.66;5018528;28;20047;-66
2021/09/17 06:54:50;;;;;;;7.55;3.80;;;;;;;14.61;78.54;96689.00;5023928;28;20037;-66
2021/09/17 06:57:15;;;;;;;5.13;2.67;;;;;;;14.76;78.86;96703.56;5021939;28;20045;-67
2021/09/17 06:59:43;;;;;;;4.18;1.95;;;;;;;14.46;80.14;96685.41;5044449;28;20137;-66
2021/09/17 07:02:10;;;;;;;3.47;2.00;;;;;;;14.43;80.38;96689.72;5040044;28;20055;-65
2021/09/17 07:04:36;;;;;;;3.70;1.92;;;;;;;14.39;80.43;96690.91;5041990;28;20041;-66
2021/09/17 07:07:01;;;;;;;3.42;1.77;;;;;;;14.45;81.36;96690.13;5043449;28;20051;-65
2021/09/17 07:09:26;;;;;;;2.70;1.85;;;;;;;14.57;81.73;96677.94;5024631;28;20049;-67
2021/09/17 07:11:52;;;;;;;4.32;1.95;;;;;;;14.52;79.24;96679.09;5042040;28;20037;-65
2021/09/17 07:14:17;;;;;;;1.52;1.10;;;;;;;14.56;76.56;96684.63;5038272;28;20040;-66
2021/09/17 07:16:43;;;;;;;2.00;1.50;;;;;;;14.69;76.68;96683.09;5033730;28;20048;-64
2021/09/17 07:19:08;;;;;;;2.25;1.40;;;;;;;14.72;75.56;96696.06;5024963;28;20103;-66
2021/09/17 07:21:34;;;;;;;3.17;1.70;;;;;;;14.98;75.52;96688.59;5020413;28;20140;-64
2021/09/17 07:23:59;;;;;;;4.38;1.45;;;;;;;14.99;74.48;96686.59;5023728;28;20045;-65
2021/09/17 07:26:25;;;;;;;3.35;1.50;;;;;;;15.12;73.10;96692.50;5018111;28;20049;-66
2021/09/17 07:28:50;;;;;;;2.58;1.50;;;;;;;15.38;73.88;96689.28;5030677;28;20127;-64
2021/09/17 07:31:16;;;;;;;3.35;1.35;;;;;;;15.43;73.93;96691.66;5032208;28;20481;-69
2021/09/17 07:33:41;;;;;;;2.50;1.60;;;;;;;15.29;72.78;96684.19;5043857;28;20036;-65
2021/09/17 07:36:06;;;;;;;4.47;1.58;;;;;;;15.49;72.18;96681.75;5039292;28;20072;-65
2021/09/17 07:38:32;;;;;;;3.40;1.70;;;;;;;15.58;72.01;96672.28;5053113;28;20037;-65
2021/09/17 07:40:57;;;;;;;4.10;1.95;;;;;;;15.53;73.21;96669.91;5042387;28;20058;-65
2021/09/17 07:43:23;;;;;;;3.17;1.30;;;;;;;15.82;70.67;96684.41;5025538;28;20663;-66
2021/09/17 07:45:48;;;;;;;2.08;1.50;;;;;;;15.91;69.75;96668.19;5029694;28;20069;-66
2021/09/17 07:48:14;;;;;;;1.98;1.20;;;;;;;16.28;68.39;96666.00;5022404;28;20114;-66
2021/09/17 07:50:39;;;;;;;4.47;1.58;;;;;;;16.47;67.63;96671.00;5024329;28;20536;-65
2021/09/17 07:53:05;;;;;;;3.97;1.50;;;;;;;16.59;69.30;96667.75;5017468;28;20386;-65
2021/09/17 07:55:34;;;;;;;2.05;1.30;;;;;;;16.62;67.59;96677.22;5003368;28;20048;-64
2021/09/17 07:58:00;;;;;;;4.32;1.75;;;;;;;17.35;66.23;96669.84;5025501;28;20037;-66
2021/09/17 08:00:25;;;;;;;2.17;1.58;;;;;;;17.10;66.27;96673.66;5031875;28;20064;-66
2021/09/17 08:02:51;;;;;;;4.00;1.73;;;;;;;17.04;65.91;96678.06;5038344;28;20048;-65
2021/09/17 08:05:17;;;;;;;3.53;1.90;;;;;;;17.25;65.83;96679.03;5037489;28;20088;-65
2021/09/17 08:07:42;;;;;;;4.88;2.42;;;;;;;17.05;65.67;96665.00;5042863;28;20044;-67
2021/09/17 08:10:08;;;;;;;2.60;1.88;;;;;;;17.49;67.40;96668.91;5027365;28;20033;-64
2021/09/17 08:12:34;;;;;;;3.42;1.65;;;;;;;17.48;59.23;96665.34;5019289;28;20042;-66
2021/09/17 08:15:00;;;;;;;3.03;2.10;;;;;;;17.23;63.45;96667.59;5022583;28;20227;-66
2021/09/17 08:17:25;;;;;;;3.60;2.20;;;;;;;17.41;66.04;96667.41;5017503;28;20510;-64
2021/09/17 08:19:50;;;;;;;6.13;1.83;;;;;;;17.48;62.32;96667.34;5021845;28;20606;-64
2021/09/17 08:22:16;;;;;;;2.72;1.67;;;;;;;18.47;58.65;96674.75;5016045;28;20033;-64
2021/09/17 08:24:41;;;;;;;3.60;1.98;;;;;;;18.30;57.04;96671.84;5021337;28;20042;-65
2021/09/17 08:27:07;;;;;;;3.17;1.60;;;;;;;17.87;56.64;96669.66;5016836;28;20048;-64
2021/09/17 08:29:32;;;;;;;3.45;1.70;;;;;;;18.44;57.14;96679.16;5021224;28;20401;-65
2021/09/17 08:31:59;;;;;;;3.38;1.73;;;;;;;18.70;58.13;96683.09;5021173;28;20057;-66
2021/09/17 08:34:25;;;;;;;4.55;1.52;;;;;;;18.46;56.63;96679.53;5016672;28;20064;-66
2021/09/17 08:36:51;;;;;;;3.10;1.35;;;;;;;18.21;59.67;96682.66;5021793;28;20099;-66
2021/09/17 08:39:17;;;;;;;3.13;1.52;;;;;;;18.65;58.32;96680.03;5016308;28;20041;-65
2021/09/17 08:41:44;;;;;;;3.97;1.13;;;;;;;19.43;58.28;96686.25;5019326;28;20037;-66
2021/09/17 08:44:09;;;;;;;1.88;1.05;;;;;;;19.40;56.10;96681.53;5018228;28;20060;-65
2021/09/17 08:46:39;;;;;;;2.83;1.60;;;;;;;19.11;55.63;96689.59;5020937;28;20091;-65
2021/09/17 08:49:06;;;;;;;2.63;1.50;;;;;;;19.15;53.85;96686.78;5017296;28;20034;-65
2021/09/17 08:51:32;;;;;;;3.17;1.23;;;;;;;19.14;55.93;96693.53;5004253;28;20041;-64
2021/09/17 08:53:57;;;;;;;1.88;1.27;;;;;;;19.86;53.08;96685.44;5018266;28;20052;-65
2021/09/17 08:56:23;;;;;;;3.53;1.90;;;;;;;18.51;55.02;96683.81;4998026;28;20042;-65
2021/09/17 08:58:48;;;;;;;3.72;1.95;;;;;;;18.41;55.77;96684.75;5021179;28;20079;-65
2021/09/17 09:01:33;;;;;;;2.58;1.60;;;;;;;18.69;53.01;96689.88;5015799;28;20045;-64
2021/09/17 09:04:04;;;;;;;2.85;1.60;;;;;;;18.06;56.08;96687.63;5021635;28;20052;-65
2021/09/17 09:06:35;;;;;;;2.75;1.48;;;;;;;18.60;54.49;96689.63;5002162;28;20041;-64
2021/09/17 09:09:01;;;;;;;2.72;1.30;;;;;;;20.62;49.42;96681.03;5020569;28;20103;-64
2021/09/17 09:11:30;;;;;;;5.10;1.30;;;;;;;21.07;48.64;96676.72;4997915;28;20050;-65
2021/09/17 09:14:06;;;;;;;2.25;1.30;;;;;;;19.91;48.34;96681.34;5001637;28;20543;-64
2021/09/17 09:16:40;;;;;;;4.22;2.20;;;;;;;19.32;49.59;96676.53;5000885;28;20049;-65
2021/09/17 09:19:17;;;;;;;3.15;2.03;;;;;;;19.16;50.98;96672.47;4995203;28;20038;-64
2021/09/17 09:21:43;;;;;;;2.92;1.50;;;;;;;19.82;47.92;96670.81;5000735;28;20505;-64
2021/09/17 09:24:11;;;;;;;3.38;1.27;;;;;;;20.98;44.27;96661.44;4994703;28;20050;-63
2021/09/17 09:26:37;;;;;;;3.10;1.15;;;;;;;21.25;45.63;96663.13;5000987;28;20124;-66
2021/09/17 09:29:03;;;;;;;2.53;1.27;;;;;;;22.79;41.99;96663.41;4997996;28;20068;-65
2021/09/17 09:31:39;;;;;;;2.55;0.88;;;;;;;23.61;38.89;96661.88;4999558;28;20042;-66
2021/09/17 09:34:05;;;;;;;2.92;1.00;;;;;;;24.72;36.38;96670.88;4995708;28;20081;-63
2021/09/17 09:36:34;;;;;;;2.55;0.77;;;;;;;24.38;36.64;96667.78;5002289;28;20381;-64
2021/09/17 09:39:00;;;;;;;2.10;0.90;;;;;;;24.04;37.19;96668.72;5003014;28;20109;-64
2021/09/17 09:41:27;;;;;;;1.45;1.02;;;;;;;23.77;38.57;96666.47;4997776;28;20469;-64
2021/09/17 09:43:57;;;;;;;2.88;1.05;;;;;;;23.64;38.49;96670.13;5002674;28;20049;-64
2021/09/17 09:46:41;;;;;;;3.55;1.27;;;;;;;22.66;39.85;96657.09;4996709;28;20277;-65
2021/09/17 09:49:12;;;;;;;1.63;0.98;;;;;;;23.14;39.56;96651.53;4996592;28;20049;-64
2021/09/17 09:52:07;;;;;;;1.63;0.95;;;;;;;23.61;36.89;96656.28;5003643;28;20093;-64
2021/09/17 09:54:35;;;;;;;1.58;0.90;;;;;;;24.98;35.21;96647.00;4995227;28;20038;-63
2021/09/17 09:57:02;;;;;;;1.65;1.10;;;;;;;25.02;34.91;96646.06;5021115;28;20046;-64
2021/09/17 09:59:32;;;;;;;1.27;0.70;;;;;;;25.41;33.29;96640.81;5004505;28;20053;-65
2021/09/17 10:01:58;;;;;;;;;;;;;;;26.26;32.60;96644.59;5001587;28;20049;-65
2021/09/17 10:04:26;;;;;;;3.38;1.10;;;;;;;26.98;31.70;96643.97;4995568;28;19913;-66
2021/09/17 10:07:07;;;;;;;2.42;1.23;;;;;;;27.55;30.01;96650.75;5001051;28;20034;-64
2021/09/17 10:09:35;;;;;;;3.38;0.75;;;;;;;26.30;31.32;96644.44;5004333;28;20067;-65
2021/09/17 10:12:02;;;;;;;3.08;0.90;;;;;;;24.28;35.49;96646.59;5019168;28;20487;-65
2021/09/17 10:14:30;;;;;;;4.28;1.95;;;;;;;22.09;39.29;96640.88;5016764;28;20046;-64
2021/09/17 10:16:58;;;;;;;2.28;0.98;;;;;;;24.49;36.06;96636.56;5020832;28;20048;-64
2021/09/17 10:19:25;;;;;;;3.53;2.00;;;;;;;25.74;34.03;96630.50;5014338;28;20557;-67
2021/09/17 10:22:03;;;;;;;6.35;2.63;;;;;;;26.70;30.93;96630.09;5021488;28;20133;-66
2021/09/17 10:24:30;;;;;;;3.25;0.88;;;;;;;26.81;31.72;96632.38;4999158;28;20054;-63
2021/09/17 10:27:06;;;;;;;4.32;2.50;;;;;;;27.03;31.63;96623.63;5003345;28;20038;-64
2021/09/17 10:29:34;;;;;;;1.30;0.77;;;;;;;24.59;35.71;96623.41;5020724;28;20037;-65
2021/09/17 10:32:00;;;;;;;1.55;1.00;;;;;;;22.27;39.11;96620.84;5021494;28;20491;-66
2021/09/17 10:34:41;;;;;;;1.75;1.00;;;;;;;24.28;35.87;96629.81;5028002;28;20088;-66
2021/09/17 10:37:09;;;;;;;2.15;0.80;;;;;;;25.74;33.25;96622.09;5027314;28;20044;-64
2021/09/17 10:39:35;;;;;;;2.13;0.95;;;;;;;26.46;31.14;96624.41;5025226;28;20049;-65
2021/09/17 10:42:11;;;;;;;1.90;0.80;;;;;;;27.35;30.68;96612.81;5025874;28;20498;-64
2021/09/17 10:45:01;;;;;;;3.20;0.98;;;;;;;27.92;29.92;96611.81;5029030;28;20045;-65
2021/09/17 10:47:56;;;;;;;0.88;0.70;;;;;;;26.66;31.31;96614.66;5019718;28;20121;-66
2021/09/17 10:50:38;;;;;;;1.75;0.82;;;;;;;27.16;30.49;96612.16;5019928;28;20584;-65
2021/09/17 10:53:03;;;;;;;1.10;0.70;;;;;;;26.99;31.64;96611.00;5019968;28;20402;-65
2021/09/17 10:55:44;;;;;;;3.00;0.80;;;;;;;26.12;32.48;96614.41;5023506;28;20046;-65
2021/09/17 10:58:21;;;;;;;1.38;0.70;;;;;;;24.76;35.29;96612.72;5016528;28;20044;-66
2021/09/17 11:00:53;;;;;;;2.53;1.25;;;;;;;24.86;35.21;96608.69;5023956;28;20422;-65
2021/09/17 11:03:40;;;;;;;1.77;1.00;;;;;;;24.74;36.97;96613.19;5022536;28;20041;-66
2021/09/17 11:06:17;;;;;;;1.52;0.90;;;;;;;23.73;38.39;96607.09;5036998;28;20053;-66
2021/09/17 11:08:47;;;;;;;7.45;2.70;;;;;;;23.68;38.46;96608.50;5029913;28;20092;-65
2021/09/17 11:11:41;;;;;;;1.42;0.90;;;;;;;23.05;39.62;96602.75;5014431;28;20037;-65
2021/09/17 11:14:19;;;;;;;1.30;0.93;;;;;;;23.25;38.86;96607.25;5018023;28;20034;-66
2021/09/17 11:16:51;;;;;;;3.53;1.40;;;;;;;23.34;39.01;96600.97;5021315;28;20481;-65
2021/09/17 11:19:18;;;;;;;1.58;1.00;;;;;;;23.27;39.50;96599.19;5029485;28;20033;-66
2021/09/17 11:21:46;;;;;;;2.15;0.90;;;;;;;24.05;37.48;96595.50;5037256;28;20061;-66
2021/09/17 11:24:26;;;;;;;3.15;1.40;;;;;;;24.07;37.78;96591.47;5027721;28;20045;-64
2021/09/17 11:26:52;;;;;;;2.72;1.10;;;;;;;25.09;35.27;96592.53;5043383;28;20124;-67
2021/09/17 11:29:20;;;;;;;2.05;1.20;;;;;;;24.11;36.64;96595.69;5026722;28;20045;-66